Autopride — CQQE — position and weather

sailwx.info

Track history (hours):
 
Tides and Currents Weather Stations Pressure Air Temp Water Temp Dewpoint Dewpoint Depression Visibility Wind Speed Wind Dir Waves Ship Positions

Autopride

Last reported at 2014-Sep-18 15:04 UTC. Time now 2014-Sep-19 03:51 UTC.
Position N 35°60' E 000°04'.

Length 125 m; draft 5 m.

Type: Cargo ship. MMSI: 255801560.

Date/timePositionNaut miles runAvg speedWind from/ knotsBaromVisibWave heightAir tempDewpointWater temp
2014-Sep-18 15:04N 35°60' E 000°04'71 2.3
2014-Sep-17 08:21N 37°05' E 000°39'1012.0
2014-Sep-17 07:33N 37°14' E 000°45'1312.3
2014-Sep-17 06:29N 37°26' E 000°52'2711.8
2014-Sep-17 04:13N 37°49' E 001°08'811.3
2014-Sep-17 03:33N 37°56' E 001°12'1110.9
2014-Sep-17 02:34N 38°06' E 001°19'6610.9
2014-Sep-16 20:33N 39°05' E 001°55'4910.8
2014-Sep-16 16:04N 39°49' E 002°22'2210.9
2014-Sep-16 14:04N 40°07' E 002°37'910.8
2014-Sep-16 13:13N 40°15' E 002°43'9811.2
2014-Sep-16 04:27N 41°41' E 003°48'7211.2
2014-Sep-15 22:03N 42°42' E 004°37'2911.3
2014-Sep-15 19:29N 43°08' E 004°56'1010.7
2014-Sep-15 18:33N 43°17' E 004°59'9 8.6
2014-Sep-15 17:28N 43°24' E 004°51'0 0.0
2014-Sep-15 16:28N 43°24' E 004°51'0 0.0
2014-Sep-15 15:28N 43°24' E 004°51'0 0.0
2014-Sep-15 14:28N 43°24' E 004°51'0 0.0
2014-Sep-15 13:28N 43°24' E 004°51'0 0.0
2014-Sep-15 12:31N 43°24' E 004°51'0 0.0
2014-Sep-15 11:28N 43°24' E 004°51'0 0.0
2014-Sep-15 10:31N 43°24' E 004°51'0 0.0
2014-Sep-15 09:28N 43°24' E 004°51'0 0.0
2014-Sep-15 08:34N 43°24' E 004°51'0 0.0
2014-Sep-15 07:34N 43°24' E 004°51'0 0.0
2014-Sep-15 06:33N 43°24' E 004°51'0 0.0
2014-Sep-15 05:33N 43°24' E 004°51'0 0.0
2014-Sep-15 04:33N 43°24' E 004°51'0 0.0
2014-Sep-15 03:33N 43°24' E 004°51'0 0.0
2014-Sep-15 02:33N 43°24' E 004°51'0 0.0
2014-Sep-15 01:33N 43°24' E 004°51'0 0.0
2014-Sep-15 00:33N 43°24' E 004°51'0 0.0
2014-Sep-14 23:33N 43°24' E 004°51'0 0.0
2014-Sep-14 22:33N 43°24' E 004°51'0 0.0
2014-Sep-14 21:33N 43°24' E 004°51'0 0.0
2014-Sep-14 20:33N 43°24' E 004°51'0 0.0
2014-Sep-14 19:33N 43°24' E 004°51'0 0.0
2014-Sep-14 18:33N 43°24' E 004°51'1 1.3
2014-Sep-14 17:33N 43°24' E 004°52'1010.3
2014-Sep-14 16:33N 43°16' E 005°01'1412.7
2014-Sep-14 15:27N 43°04' E 005°12'9 6.9
2014-Sep-14 14:10N 42°57' E 005°19'0 0.4
2014-Sep-14 13:33N 42°57' E 005°19'1 0.3
2014-Sep-14 09:32N 42°56' E 005°18'1411.5
2014-Sep-14 08:20N 42°50' E 005°34'912.0
2014-Sep-14 07:33N 42°47' E 005°46'1212.0
2014-Sep-14 06:33N 42°43' E 006°02'1211.6
2014-Sep-14 05:33N 42°38' E 006°16'1211.6
2014-Sep-14 04:33N 42°31' E 006°29'1211.5
2014-Sep-14 03:29N 42°25' E 006°43'1111.4
2014-Sep-14 02:33N 42°19' E 006°55'29710.8
2014-Sep-12 23:06N 40°42' E 013°10'611.1
2014-Sep-12 22:33N 40°40' E 013°17'2311.4
2014-Sep-12 20:33N 40°35' E 013°47'1111.3
2014-Sep-12 19:33N 40°33' E 014°01'1311.1
2014-Sep-12 18:26N 40°31' E 014°17'1111.5
2014-Sep-12 17:29N 40°35' E 014°31'10 1.1
2014-Sep-12 08:33N 40°31' E 014°44'134 3.2
2014-Sep-10 14:33N 38°28' E 015°55'0 0.0
2014-Sep-10 13:33N 38°28' E 015°55'0 0.0
2014-Sep-10 12:33N 38°28' E 015°55'0 0.0
2014-Sep-10 11:33N 38°28' E 015°55'  
Track history (hours):
 
Tides and Currents Weather Stations Pressure Air Temp Water Temp Dewpoint Dewpoint Depression Visibility Wind Speed Wind Dir Waves Ship Positions

Autopride

Last reported at 2014-Sep-18 15:04 UTC. Time now 2014-Sep-19 03:51 UTC.
Position N 35°60' E 000°04'.

Length 125 m; draft 5 m.

Type: Cargo ship. MMSI: 255801560.

Date/timePositionNaut miles runAvg speedWind from/ knotsBaromVisibWave heightAir tempDewpointWater temp
2014-Sep-18 15:04N 35°60' E 000°04'71 2.3
2014-Sep-17 08:21N 37°05' E 000°39'1012.0
2014-Sep-17 07:33N 37°14' E 000°45'1312.3
2014-Sep-17 06:29N 37°26' E 000°52'2711.8
2014-Sep-17 04:13N 37°49' E 001°08'811.3
2014-Sep-17 03:33N 37°56' E 001°12'1110.9
2014-Sep-17 02:34N 38°06' E 001°19'6610.9
2014-Sep-16 20:33N 39°05' E 001°55'4910.8
2014-Sep-16 16:04N 39°49' E 002°22'2210.9
2014-Sep-16 14:04N 40°07' E 002°37'910.8
2014-Sep-16 13:13N 40°15' E 002°43'9811.2
2014-Sep-16 04:27N 41°41' E 003°48'7211.2
2014-Sep-15 22:03N 42°42' E 004°37'2911.3
2014-Sep-15 19:29N 43°08' E 004°56'1010.7
2014-Sep-15 18:33N 43°17' E 004°59'9 8.6
2014-Sep-15 17:28N 43°24' E 004°51'0 0.0
2014-Sep-15 16:28N 43°24' E 004°51'0 0.0
2014-Sep-15 15:28N 43°24' E 004°51'0 0.0
2014-Sep-15 14:28N 43°24' E 004°51'0 0.0
2014-Sep-15 13:28N 43°24' E 004°51'0 0.0
2014-Sep-15 12:31N 43°24' E 004°51'0 0.0
2014-Sep-15 11:28N 43°24' E 004°51'0 0.0
2014-Sep-15 10:31N 43°24' E 004°51'0 0.0
2014-Sep-15 09:28N 43°24' E 004°51'0 0.0
2014-Sep-15 08:34N 43°24' E 004°51'0 0.0
2014-Sep-15 07:34N 43°24' E 004°51'0 0.0
2014-Sep-15 06:33N 43°24' E 004°51'0 0.0
2014-Sep-15 05:33N 43°24' E 004°51'0 0.0
2014-Sep-15 04:33N 43°24' E 004°51'0 0.0
2014-Sep-15 03:33N 43°24' E 004°51'0 0.0
2014-Sep-15 02:33N 43°24' E 004°51'0 0.0
2014-Sep-15 01:33N 43°24' E 004°51'0 0.0
2014-Sep-15 00:33N 43°24' E 004°51'0 0.0
2014-Sep-14 23:33N 43°24' E 004°51'0 0.0
2014-Sep-14 22:33N 43°24' E 004°51'0 0.0
2014-Sep-14 21:33N 43°24' E 004°51'0 0.0
2014-Sep-14 20:33N 43°24' E 004°51'0 0.0
2014-Sep-14 19:33N 43°24' E 004°51'0 0.0
2014-Sep-14 18:33N 43°24' E 004°51'1 1.3
2014-Sep-14 17:33N 43°24' E 004°52'1010.3
2014-Sep-14 16:33N 43°16' E 005°01'1412.7
2014-Sep-14 15:27N 43°04' E 005°12'9 6.9
2014-Sep-14 14:10N 42°57' E 005°19'0 0.4
2014-Sep-14 13:33N 42°57' E 005°19'1 0.3
2014-Sep-14 09:32N 42°56' E 005°18'1411.5
2014-Sep-14 08:20N 42°50' E 005°34'912.0
2014-Sep-14 07:33N 42°47' E 005°46'1212.0
2014-Sep-14 06:33N 42°43' E 006°02'1211.6
2014-Sep-14 05:33N 42°38' E 006°16'1211.6
2014-Sep-14 04:33N 42°31' E 006°29'1211.5
2014-Sep-14 03:29N 42°25' E 006°43'1111.4
2014-Sep-14 02:33N 42°19' E 006°55'29710.8
2014-Sep-12 23:06N 40°42' E 013°10'611.1
2014-Sep-12 22:33N 40°40' E 013°17'2311.4
2014-Sep-12 20:33N 40°35' E 013°47'1111.3
2014-Sep-12 19:33N 40°33' E 014°01'1311.1
2014-Sep-12 18:26N 40°31' E 014°17'1111.5
2014-Sep-12 17:29N 40°35' E 014°31'10 1.1
2014-Sep-12 08:33N 40°31' E 014°44'134 3.2
2014-Sep-10 14:33N 38°28' E 015°55'0 0.0
2014-Sep-10 13:33N 38°28' E 015°55'0 0.0
2014-Sep-10 12:33N 38°28' E 015°55'0 0.0
2014-Sep-10 11:33N 38°28' E 015°55'  

Dump ship's entire track history